createdAt,value
2017-03-13T00:00:40.567Z,64
2017-03-13T00:01:54.371Z,64
2017-03-13T00:03:08.244Z,64
2017-03-13T00:04:21.949Z,63
2017-03-13T00:05:35.804Z,63
2017-03-13T00:06:49.602Z,63
2017-03-13T00:08:03.158Z,63
2017-03-13T00:09:16.698Z,63
2017-03-13T00:10:30.201Z,63
2017-03-13T00:11:43.865Z,63
2017-03-13T00:12:57.912Z,63
2017-03-13T00:14:12.460Z,63
2017-03-13T00:15:26.369Z,63
2017-03-13T00:16:40.267Z,63
2017-03-13T00:17:53.778Z,63
2017-03-13T00:19:07.246Z,63
2017-03-13T00:20:22.959Z,63
2017-03-13T00:21:36.946Z,63
2017-03-13T00:22:51.439Z,63
2017-03-13T00:24:05.812Z,63
2017-03-13T00:25:19.756Z,63
2017-03-13T00:26:33.703Z,63
2017-03-13T00:27:47.628Z,63
2017-03-13T00:29:02.024Z,63
2017-03-13T00:30:15.513Z,63
2017-03-13T00:31:29.660Z,63
2017-03-13T00:32:43.202Z,63
2017-03-13T00:33:57.174Z,63
2017-03-13T00:35:11.112Z,63
2017-03-13T00:36:25.445Z,63
2017-03-13T00:37:38.945Z,63
2017-03-13T00:38:52.605Z,63
2017-03-13T00:40:06.211Z,63
2017-03-13T00:41:20.079Z,63
2017-03-13T00:42:33.611Z,63
2017-03-13T00:43:47.090Z,63
2017-03-13T00:45:01.261Z,63
2017-03-13T00:46:14.800Z,63
2017-03-13T00:47:28.366Z,63
2017-03-13T00:48:41.876Z,63
2017-03-13T00:49:55.468Z,63
2017-03-13T00:51:09.025Z,63
2017-03-13T00:52:22.995Z,63
2017-03-13T00:53:36.877Z,63
2017-03-13T00:54:50.846Z,63
2017-03-13T00:56:05.583Z,63
2017-03-13T00:57:19.982Z,63
2017-03-13T00:58:34.581Z,63
2017-03-13T00:59:48.112Z,63
2017-03-13T01:01:01.716Z,63
2017-03-13T01:02:16.146Z,63
2017-03-13T01:03:30.058Z,63
2017-03-13T01:04:44.168Z,63
2017-03-13T01:05:58.743Z,63
2017-03-13T01:07:12.246Z,63
2017-03-13T01:08:25.889Z,63
2017-03-13T01:09:39.465Z,63
2017-03-13T01:10:53.270Z,63
2017-03-13T01:12:06.919Z,63
2017-03-13T01:13:20.383Z,63
2017-03-13T01:14:34.294Z,63
2017-03-13T01:15:48.535Z,63
2017-03-13T01:17:02.485Z,63
2017-03-13T01:18:15.967Z,63
2017-03-13T01:19:29.901Z,63
2017-03-13T01:20:43.423Z,63
2017-03-13T01:21:57.106Z,63
2017-03-13T01:23:10.743Z,63
2017-03-13T01:24:24.188Z,63
2017-03-13T01:25:37.683Z,63
2017-03-13T01:26:51.180Z,63
2017-03-13T01:28:04.653Z,63
2017-03-13T01:29:18.224Z,63
2017-03-13T01:30:32.047Z,63
2017-03-13T01:31:45.661Z,63
2017-03-13T01:32:59.152Z,63
2017-03-13T01:34:13.136Z,63
2017-03-13T01:35:27.410Z,63
2017-03-13T01:36:43.054Z,63
2017-03-13T01:37:57.010Z,63
2017-03-13T01:39:10.931Z,63
2017-03-13T01:40:24.432Z,63
2017-03-13T01:41:37.946Z,63
2017-03-13T01:42:51.471Z,63
2017-03-13T01:44:04.995Z,63
2017-03-13T01:45:18.688Z,63
2017-03-13T01:46:32.121Z,63
2017-03-13T01:47:46.255Z,63
2017-03-13T01:48:59.692Z,63
2017-03-13T01:50:13.960Z,63
2017-03-13T01:51:27.416Z,63
2017-03-13T01:52:40.934Z,63
2017-03-13T01:53:54.527Z,63
2017-03-13T01:55:08.087Z,63
2017-03-13T01:56:21.709Z,63
2017-03-13T01:57:35.251Z,63
2017-03-13T01:58:49.223Z,63
2017-03-13T02:00:02.939Z,63
2017-03-13T02:01:16.822Z,63
2017-03-13T02:02:30.808Z,63
2017-03-13T02:03:44.397Z,63
2017-03-13T02:04:57.900Z,63
2017-03-13T02:06:11.360Z,63
2017-03-13T02:07:24.802Z,63
2017-03-13T02:08:38.409Z,63
2017-03-13T02:09:51.970Z,63
2017-03-13T02:11:05.420Z,63
2017-03-13T02:12:18.890Z,63
2017-03-13T02:13:32.315Z,63
2017-03-13T02:14:46.030Z,63
2017-03-13T02:15:59.461Z,63
2017-03-13T02:17:13.318Z,63
2017-03-13T02:18:26.804Z,63
2017-03-13T02:19:40.819Z,63
2017-03-13T02:20:54.701Z,63
2017-03-13T02:22:08.157Z,63
2017-03-13T02:23:22.089Z,63
2017-03-13T02:24:36.421Z,63
2017-03-13T02:25:50.541Z,63
2017-03-13T02:27:04.002Z,63
2017-03-13T02:28:18.315Z,63
2017-03-13T02:29:31.878Z,63
2017-03-13T02:30:45.383Z,63
2017-03-13T02:31:59.338Z,62
2017-03-13T02:33:12.797Z,62
2017-03-13T02:34:38.987Z,62
2017-03-13T02:35:52.551Z,62
2017-03-13T02:37:06.088Z,62
2017-03-13T02:38:19.567Z,62
2017-03-13T02:39:33.013Z,62
2017-03-13T02:40:46.596Z,62
2017-03-13T02:42:00.421Z,62
2017-03-13T02:43:13.913Z,62
2017-03-13T02:44:27.751Z,62
2017-03-13T02:45:41.282Z,62
2017-03-13T02:46:55.106Z,62
2017-03-13T02:48:08.543Z,62
2017-03-13T02:49:22.397Z,62
2017-03-13T02:50:35.851Z,62
2017-03-13T02:51:49.337Z,62
2017-03-13T02:53:05.022Z,62
2017-03-13T02:54:18.482Z,62
2017-03-13T02:55:31.942Z,62
2017-03-13T02:56:45.963Z,62
2017-03-13T02:57:59.422Z,62
2017-03-13T02:59:12.869Z,62
2017-03-13T03:00:26.351Z,62
2017-03-13T03:01:40.365Z,62
2017-03-13T03:02:53.837Z,62
2017-03-13T03:04:07.713Z,62
2017-03-13T03:05:21.583Z,62
2017-03-13T03:06:35.146Z,62
2017-03-13T03:07:48.653Z,62
2017-03-13T03:09:02.557Z,62
2017-03-13T03:10:16.038Z,62
2017-03-13T03:11:29.484Z,62
2017-03-13T03:12:43.036Z,62
2017-03-13T03:13:57.916Z,62
2017-03-13T03:15:12.742Z,62
2017-03-13T03:16:28.378Z,62
2017-03-13T03:17:44.323Z,62
2017-03-13T03:18:59.255Z,62
2017-03-13T03:20:14.962Z,62
2017-03-13T03:21:30.849Z,62
2017-03-13T03:22:47.846Z,62
2017-03-13T03:24:01.435Z,62
2017-03-13T03:25:15.451Z,62
2017-03-13T03:26:28.948Z,62
2017-03-13T03:27:42.907Z,62
2017-03-13T03:28:56.765Z,62
2017-03-13T03:30:10.173Z,62
2017-03-13T03:31:23.671Z,62
2017-03-13T03:32:37.155Z,62
2017-03-13T03:33:50.725Z,62
2017-03-13T03:35:04.171Z,62
2017-03-13T03:36:17.657Z,62
2017-03-13T03:37:31.502Z,62
2017-03-13T03:38:45.062Z,62
2017-03-13T03:39:58.499Z,62
2017-03-13T03:41:12.351Z,62
2017-03-13T03:42:25.769Z,62
2017-03-13T03:43:39.432Z,61
2017-03-13T03:44:54.128Z,61
2017-03-13T03:46:08.454Z,61
2017-03-13T03:47:22.697Z,61
2017-03-13T03:48:36.214Z,61
2017-03-13T03:50:04.603Z,61
2017-03-13T03:51:18.054Z,61
2017-03-13T03:52:31.478Z,61
2017-03-13T03:53:44.927Z,61
2017-03-13T03:54:58.523Z,61
2017-03-13T03:56:12.315Z,61
2017-03-13T03:57:26.437Z,61
2017-03-13T03:58:39.884Z,61
2017-03-13T03:59:53.888Z,61
2017-03-13T04:01:07.341Z,61
2017-03-13T04:02:20.859Z,61
2017-03-13T04:03:34.696Z,61
2017-03-13T04:04:48.138Z,61
2017-03-13T04:06:02.614Z,61
2017-03-13T04:07:16.457Z,61
2017-03-13T04:08:30.400Z,61
2017-03-13T04:09:46.021Z,61
2017-03-13T04:10:59.570Z,61
2017-03-13T04:12:13.116Z,61
2017-03-13T04:13:26.558Z,61
2017-03-13T04:14:41.564Z,61
2017-03-13T04:15:55.135Z,61
2017-03-13T04:17:08.592Z,61
2017-03-13T04:18:22.045Z,61
2017-03-13T04:19:35.478Z,61
2017-03-13T04:20:49.175Z,61
2017-03-13T04:22:02.668Z,61
2017-03-13T04:23:16.491Z,61
2017-03-13T04:24:30.323Z,61
2017-03-13T04:25:43.772Z,61
2017-03-13T04:26:57.783Z,61
2017-03-13T04:28:11.267Z,61
2017-03-13T04:29:25.179Z,61
2017-03-13T04:30:38.636Z,61
2017-03-13T04:31:52.198Z,61
2017-03-13T04:33:05.679Z,61
2017-03-13T04:34:19.141Z,61
2017-03-13T04:35:33.119Z,61
2017-03-13T04:36:46.617Z,61
2017-03-13T04:38:00.146Z,61
2017-03-13T04:39:17.061Z,61
2017-03-13T04:40:30.930Z,61
2017-03-13T04:41:44.537Z,61
2017-03-13T04:42:58.013Z,61
2017-03-13T04:44:11.477Z,61
2017-03-13T04:45:25.375Z,61
2017-03-13T04:46:38.782Z,61
2017-03-13T04:47:52.807Z,61
2017-03-13T04:49:06.267Z,61
2017-03-13T04:50:20.171Z,61
2017-03-13T04:51:34.084Z,61
2017-03-13T04:52:48.068Z,61
2017-03-13T04:54:02.175Z,61
2017-03-13T04:55:15.703Z,61
2017-03-13T04:56:30.008Z,61
2017-03-13T04:57:43.978Z,61
2017-03-13T04:58:58.463Z,61
2017-03-13T05:00:12.790Z,61
2017-03-13T05:01:26.253Z,61
2017-03-13T05:02:39.756Z,61
2017-03-13T05:03:53.512Z,61
2017-03-13T05:05:06.968Z,61
2017-03-13T05:06:20.674Z,61
2017-03-13T05:07:34.570Z,61
2017-03-13T05:08:48.653Z,61
2017-03-13T05:10:02.413Z,61
2017-03-13T05:11:15.926Z,61
2017-03-13T05:12:29.714Z,61
2017-03-13T05:13:43.645Z,61
2017-03-13T05:14:57.593Z,61
2017-03-13T05:16:11.763Z,61
2017-03-13T05:17:25.225Z,61
2017-03-13T05:18:38.845Z,61
2017-03-13T05:19:52.330Z,61
2017-03-13T05:25:29.093Z,61
2017-03-13T05:26:43.249Z,61
2017-03-13T05:27:56.970Z,61
2017-03-13T05:29:12.782Z,61
2017-03-13T05:30:27.180Z,61
2017-03-13T05:31:40.699Z,61
2017-03-13T05:32:54.138Z,61
2017-03-13T05:34:08.014Z,61
2017-03-13T05:35:22.444Z,61
2017-03-13T05:36:35.871Z,61
2017-03-13T05:37:49.617Z,61
2017-03-13T05:39:03.117Z,61
2017-03-13T05:40:17.040Z,61
2017-03-13T05:41:30.560Z,61
2017-03-13T05:42:44.217Z,61
2017-03-13T05:43:58.451Z,61
2017-03-13T05:45:12.805Z,61
2017-03-13T05:46:26.369Z,61
2017-03-13T05:47:39.842Z,61
2017-03-13T05:48:53.298Z,61
2017-03-13T05:50:07.469Z,61
2017-03-13T05:51:21.391Z,61
2017-03-13T05:52:34.877Z,61
2017-03-13T05:53:48.842Z,61
2017-03-13T05:55:02.506Z,61
2017-03-13T05:56:22.577Z,61
2017-03-13T05:57:36.126Z,61
2017-03-13T05:58:50.011Z,61
2017-03-13T06:00:04.388Z,61
2017-03-13T06:01:18.100Z,61
2017-03-13T06:02:31.944Z,61
2017-03-13T06:03:45.400Z,61
2017-03-13T06:04:58.817Z,61
2017-03-13T06:06:12.557Z,61
2017-03-13T06:07:26.127Z,61
2017-03-13T06:08:39.875Z,61
2017-03-13T06:09:53.310Z,61
2017-03-13T06:11:07.212Z,61
2017-03-13T06:12:20.973Z,61
2017-03-13T06:13:34.423Z,61
2017-03-13T06:14:48.178Z,61
2017-03-13T06:16:02.288Z,61
2017-03-13T06:17:15.767Z,61
2017-03-13T06:18:29.731Z,61
2017-03-13T06:19:43.596Z,61
2017-03-13T06:20:57.357Z,61
2017-03-13T06:22:10.842Z,61
2017-03-13T06:23:24.375Z,61
2017-03-13T06:24:37.827Z,61
2017-03-13T06:25:51.284Z,61
2017-03-13T06:27:05.200Z,61
2017-03-13T06:28:18.705Z,61
2017-03-13T06:29:32.329Z,61
2017-03-13T06:30:45.834Z,61
2017-03-13T06:31:59.713Z,61
2017-03-13T06:33:14.214Z,61
2017-03-13T06:34:27.722Z,61
2017-03-13T06:35:41.285Z,61
2017-03-13T06:36:54.727Z,61
2017-03-13T06:38:08.178Z,61
2017-03-13T06:39:21.940Z,61
2017-03-13T06:40:35.528Z,61
2017-03-13T06:41:48.991Z,62
2017-03-13T06:43:02.453Z,62
2017-03-13T06:44:15.945Z,62
2017-03-13T06:45:32.039Z,62
2017-03-13T06:46:45.567Z,62
2017-03-13T06:47:59.011Z,62
2017-03-13T06:49:12.455Z,62
2017-03-13T06:50:26.028Z,62
2017-03-13T06:51:40.379Z,62
2017-03-13T06:52:53.991Z,62
2017-03-13T06:54:07.830Z,62
2017-03-13T06:55:21.716Z,62
2017-03-13T06:56:35.229Z,62
2017-03-13T06:57:49.438Z,62
2017-03-13T06:59:02.933Z,62
2017-03-13T07:00:16.630Z,62
2017-03-13T07:01:30.167Z,62
2017-03-13T07:02:43.608Z,62
2017-03-13T07:03:57.747Z,62
2017-03-13T07:05:11.208Z,62
2017-03-13T07:06:24.817Z,62
2017-03-13T07:07:38.336Z,62
2017-03-13T07:08:51.813Z,62
2017-03-13T07:10:05.583Z,62
2017-03-13T07:11:19.450Z,62
2017-03-13T07:12:33.205Z,62
2017-03-13T07:13:47.487Z,62
2017-03-13T07:15:01.402Z,62
2017-03-13T07:16:15.158Z,62
2017-03-13T07:17:28.660Z,62
2017-03-13T07:18:42.635Z,62
2017-03-13T07:19:56.971Z,62
2017-03-13T07:21:10.868Z,62
2017-03-13T07:22:24.675Z,62
2017-03-13T07:23:38.178Z,62
2017-03-13T07:24:51.673Z,62
2017-03-13T07:26:05.583Z,62
2017-03-13T07:27:19.121Z,63
2017-03-13T07:28:32.911Z,63
2017-03-13T07:29:46.413Z,63
2017-03-13T07:31:00.398Z,63
2017-03-13T07:32:13.890Z,63
2017-03-13T07:33:27.891Z,63
2017-03-13T07:34:41.611Z,63
2017-03-13T07:35:55.127Z,63
2017-03-13T07:37:08.636Z,63
2017-03-13T07:38:22.149Z,63
2017-03-13T07:39:35.697Z,63
2017-03-13T07:40:50.289Z,63
2017-03-13T07:42:03.958Z,63
2017-03-13T07:43:17.405Z,63
2017-03-13T07:44:31.008Z,63
2017-03-13T07:45:44.887Z,63
2017-03-13T07:46:58.639Z,63
2017-03-13T07:48:12.109Z,63
2017-03-13T07:49:25.737Z,63
2017-03-13T07:50:39.169Z,63
2017-03-13T07:51:52.784Z,63
2017-03-13T07:53:06.739Z,63
2017-03-13T07:54:20.625Z,63
2017-03-13T07:55:34.220Z,63
2017-03-13T07:56:48.136Z,63
2017-03-13T07:58:01.610Z,63
2017-03-13T07:59:15.356Z,63
2017-03-13T08:00:28.943Z,63
2017-03-13T08:01:44.703Z,63
2017-03-13T08:02:58.380Z,63
2017-03-13T08:04:11.989Z,63
2017-03-13T08:05:25.848Z,63
2017-03-13T08:06:39.738Z,63
2017-03-13T08:07:53.261Z,63
2017-03-13T08:09:06.746Z,64
2017-03-13T08:10:20.873Z,64
2017-03-13T08:11:35.253Z,64
2017-03-13T08:12:49.147Z,64
2017-03-13T08:14:03.033Z,64
2017-03-13T08:15:17.725Z,64
2017-03-13T08:16:31.553Z,64
2017-03-13T08:17:45.346Z,64
2017-03-13T08:18:59.215Z,64
2017-03-13T08:20:12.710Z,64
2017-03-13T08:21:26.282Z,64
2017-03-13T08:22:39.761Z,64
2017-03-13T08:23:53.513Z,64
2017-03-13T08:25:06.972Z,64
2017-03-13T08:26:20.442Z,64
2017-03-13T08:27:34.463Z,64
2017-03-13T08:29:32.993Z,64
2017-03-13T08:30:46.457Z,64
2017-03-13T08:32:00.006Z,64
2017-03-13T08:33:14.614Z,64
2017-03-13T08:34:28.493Z,65
2017-03-13T08:35:42.242Z,65
2017-03-13T08:36:56.750Z,65
2017-03-13T08:38:10.798Z,65
2017-03-13T08:39:24.416Z,65
2017-03-13T08:40:37.960Z,65
2017-03-13T08:41:51.397Z,65
2017-03-13T08:43:05.671Z,65
2017-03-13T08:44:20.113Z,65
2017-03-13T08:45:33.742Z,65
2017-03-13T08:46:47.282Z,65
2017-03-13T08:48:01.509Z,65
2017-03-13T08:49:15.103Z,65
2017-03-13T08:50:28.604Z,65
2017-03-13T08:51:42.262Z,65
2017-03-13T08:52:56.138Z,65
2017-03-13T08:54:10.354Z,65
2017-03-13T08:55:24.440Z,65
2017-03-13T08:56:38.125Z,65
2017-03-13T08:57:51.638Z,66
2017-03-13T08:59:05.155Z,66
2017-03-13T09:00:18.912Z,66
2017-03-13T09:01:45.510Z,66
2017-03-13T09:02:58.963Z,66
2017-03-13T09:04:12.723Z,66
2017-03-13T09:05:26.607Z,66
2017-03-13T09:06:40.378Z,66
2017-03-13T09:07:54.237Z,66
2017-03-13T09:09:07.741Z,66
2017-03-13T09:10:21.724Z,66
2017-03-13T09:11:35.172Z,66
2017-03-13T09:12:48.938Z,67
2017-03-13T09:14:02.842Z,67
2017-03-13T09:15:16.441Z,67
2017-03-13T09:16:30.009Z,67
2017-03-13T09:17:43.479Z,67
2017-03-13T09:18:59.599Z,67
2017-03-13T09:20:13.166Z,67
2017-03-13T09:21:27.003Z,67
2017-03-13T09:22:40.559Z,67
2017-03-13T09:23:54.455Z,68
2017-03-13T09:25:08.334Z,68
2017-03-13T09:26:22.296Z,68
2017-03-13T09:27:35.782Z,68
2017-03-13T09:28:49.409Z,68
2017-03-13T09:30:02.885Z,68
2017-03-13T09:31:16.758Z,68
2017-03-13T09:32:30.317Z,68
2017-03-13T09:33:43.920Z,68
2017-03-13T09:34:57.693Z,68
2017-03-13T09:36:11.357Z,68
2017-03-13T09:37:25.229Z,68
2017-03-13T09:38:38.694Z,68
2017-03-13T09:39:52.178Z,68
2017-03-13T09:41:05.773Z,68
2017-03-13T09:42:19.642Z,68
2017-03-13T09:43:33.444Z,68
2017-03-13T09:44:46.935Z,68
2017-03-13T09:46:00.941Z,68
2017-03-13T09:47:15.108Z,68
2017-03-13T09:48:29.650Z,68
2017-03-13T09:49:43.877Z,68
2017-03-13T09:50:57.298Z,68
2017-03-13T09:52:10.826Z,68
2017-03-13T09:53:24.659Z,68
2017-03-13T09:54:38.144Z,68
2017-03-13T09:55:52.315Z,68
2017-03-13T09:57:05.829Z,68
2017-03-13T09:58:19.323Z,68
2017-03-13T09:59:32.810Z,68
2017-03-13T10:00:46.291Z,68
2017-03-13T10:02:00.081Z,68
2017-03-13T10:03:13.827Z,68
2017-03-13T10:04:40.036Z,68
2017-03-13T10:05:53.563Z,68
2017-03-13T10:07:08.115Z,68
2017-03-13T10:08:22.315Z,68
2017-03-13T10:09:35.742Z,68
2017-03-13T10:10:49.225Z,68
2017-03-13T10:12:02.735Z,68
2017-03-13T10:13:16.753Z,68
2017-03-13T10:14:30.618Z,69
2017-03-13T10:15:44.071Z,69
2017-03-13T10:16:57.555Z,69
2017-03-13T10:18:11.114Z,69
2017-03-13T10:19:24.861Z,69
2017-03-13T10:20:38.437Z,69
2017-03-13T10:21:51.926Z,69
2017-03-13T10:23:05.406Z,69
2017-03-13T10:24:19.418Z,69
2017-03-13T10:25:33.585Z,69
2017-03-13T10:26:47.169Z,69
2017-03-13T10:28:00.695Z,69
2017-03-13T10:29:14.263Z,69
2017-03-13T10:30:27.742Z,69
2017-03-13T10:31:41.507Z,69
2017-03-13T10:32:55.079Z,69
2017-03-13T10:34:08.956Z,69
2017-03-13T10:35:24.634Z,69
2017-03-13T10:36:38.515Z,69
2017-03-13T10:37:52.358Z,69
2017-03-13T10:39:06.274Z,69
2017-03-13T10:40:20.237Z,69
2017-03-13T10:41:33.718Z,69
2017-03-13T10:42:47.186Z,69
2017-03-13T10:44:00.672Z,69
2017-03-13T10:45:14.691Z,69
2017-03-13T10:46:28.163Z,69
2017-03-13T10:47:41.627Z,69
2017-03-13T10:48:55.547Z,69
2017-03-13T10:51:10.782Z,69
2017-03-13T10:52:24.540Z,69
2017-03-13T10:53:39.022Z,69
2017-03-13T10:54:52.515Z,69
2017-03-13T10:56:06.833Z,69
2017-03-13T10:57:20.740Z,69
2017-03-13T10:58:34.358Z,69
2017-03-13T10:59:48.291Z,69
2017-03-13T11:01:01.910Z,69
2017-03-13T11:02:15.867Z,69
2017-03-13T11:03:29.615Z,69
2017-03-13T11:04:43.477Z,69
2017-03-13T11:05:56.972Z,69
2017-03-13T11:07:10.521Z,69
2017-03-13T11:08:24.365Z,69
2017-03-13T11:09:39.265Z,70
2017-03-13T11:10:52.728Z,70
2017-03-13T11:12:06.715Z,70
2017-03-13T11:13:20.153Z,70
2017-03-13T11:14:33.650Z,70
2017-03-13T11:15:47.797Z,70
2017-03-13T11:17:02.121Z,70
2017-03-13T11:18:15.685Z,70
2017-03-13T11:19:29.590Z,70
2017-03-13T11:20:43.522Z,70
2017-03-13T11:21:57.757Z,70
2017-03-13T11:23:11.687Z,70
2017-03-13T11:24:25.173Z,70
2017-03-13T11:25:39.046Z,70
2017-03-13T11:26:52.983Z,71
2017-03-13T11:28:07.300Z,71
2017-03-13T11:29:20.750Z,71
2017-03-13T11:30:34.206Z,71
2017-03-13T11:31:47.679Z,71
2017-03-13T11:33:01.257Z,71
2017-03-13T11:34:15.097Z,71
2017-03-13T11:35:28.553Z,71
2017-03-13T11:36:42.060Z,71
2017-03-13T11:37:55.563Z,71
2017-03-13T11:39:09.269Z,71
2017-03-13T11:40:23.424Z,71
2017-03-13T11:41:36.865Z,72
2017-03-13T11:42:50.350Z,72
2017-03-13T11:44:04.801Z,72
2017-03-13T11:45:18.388Z,72
2017-03-13T11:46:32.154Z,72
2017-03-13T11:47:45.656Z,72
2017-03-13T11:48:59.567Z,72
2017-03-13T11:50:13.166Z,72
2017-03-13T11:51:26.986Z,72
2017-03-13T11:52:43.363Z,72
2017-03-13T11:53:57.265Z,72
2017-03-13T11:55:11.266Z,72
2017-03-13T11:56:24.752Z,72
2017-03-13T11:57:38.349Z,72
2017-03-13T11:58:52.162Z,72
2017-03-13T12:00:06.575Z,72
2017-03-13T12:01:20.061Z,72
2017-03-13T12:03:18.306Z,72
2017-03-13T12:04:32.479Z,73
2017-03-13T12:05:46.506Z,73
2017-03-13T12:07:00.378Z,73
2017-03-13T12:08:14.014Z,73
2017-03-13T12:09:27.489Z,73
2017-03-13T12:10:41.718Z,73
2017-03-13T12:11:55.258Z,73
2017-03-13T12:13:08.745Z,73
2017-03-13T12:14:22.363Z,73
2017-03-13T12:15:36.350Z,73
2017-03-13T12:16:49.957Z,73
2017-03-13T12:18:03.452Z,73
2017-03-13T12:19:16.924Z,73
2017-03-13T12:20:30.588Z,73
2017-03-13T12:21:45.670Z,73
2017-03-13T12:22:59.502Z,73
2017-03-13T12:24:12.939Z,73
2017-03-13T12:25:26.430Z,73
2017-03-13T12:26:40.097Z,73
2017-03-13T12:27:53.973Z,73
2017-03-13T12:29:07.410Z,73
2017-03-13T12:30:20.886Z,73
2017-03-13T12:31:34.854Z,73
2017-03-13T12:32:49.289Z,73
2017-03-13T12:34:03.266Z,73
2017-03-13T12:35:17.578Z,73
2017-03-13T12:36:31.092Z,73
2017-03-13T12:37:44.625Z,73
2017-03-13T12:38:58.713Z,73
2017-03-13T12:40:12.577Z,73
2017-03-13T12:41:26.068Z,73
2017-03-13T12:42:40.418Z,73
2017-03-13T12:43:53.871Z,73
2017-03-13T12:45:07.354Z,73
2017-03-13T12:46:21.259Z,73
2017-03-13T12:47:36.277Z,73
2017-03-13T12:48:50.230Z,72
2017-03-13T12:50:04.185Z,72
2017-03-13T12:51:17.844Z,72
2017-03-13T12:54:22.097Z,72
2017-03-13T12:55:35.594Z,72
2017-03-13T12:56:49.113Z,72
2017-03-13T12:58:02.590Z,72
2017-03-13T12:59:16.607Z,72
2017-03-13T13:00:30.426Z,72
2017-03-13T13:01:43.883Z,72
2017-03-13T13:02:57.834Z,72
2017-03-13T13:04:11.479Z,72
2017-03-13T13:05:25.292Z,72
2017-03-13T13:06:39.438Z,72
2017-03-13T13:07:53.085Z,72
2017-03-13T13:09:06.521Z,72
2017-03-13T13:10:20.695Z,72
2017-03-13T13:11:36.472Z,72
2017-03-13T13:21:03.145Z,71
2017-03-13T13:22:16.710Z,71
2017-03-13T13:23:30.184Z,71
2017-03-13T13:24:44.472Z,72
2017-03-13T13:25:58.058Z,72
2017-03-13T13:27:12.249Z,72
2017-03-13T13:28:25.953Z,72
2017-03-13T13:29:40.294Z,71
2017-03-13T13:30:55.036Z,71
2017-03-13T13:32:08.555Z,71
2017-03-13T13:40:42.868Z,72
2017-03-13T13:41:56.868Z,72
2017-03-13T13:43:12.434Z,72
2017-03-13T13:44:27.735Z,72
2017-03-13T13:45:44.652Z,72
2017-03-13T13:46:59.491Z,72
2017-03-13T13:49:30.120Z,71
2017-03-13T13:51:00.265Z,71
2017-03-13T13:52:14.202Z,71
2017-03-13T13:53:27.631Z,71
2017-03-13T13:54:41.845Z,71
2017-03-13T13:55:55.860Z,71
2017-03-13T13:57:10.385Z,71
2017-03-13T13:58:25.101Z,71
2017-03-13T13:59:39.287Z,71
2017-03-13T14:00:53.238Z,71
2017-03-13T14:02:08.142Z,71
2017-03-13T14:03:21.550Z,71
2017-03-13T14:04:35.253Z,72
2017-03-13T14:05:49.761Z,72
2017-03-13T14:07:03.616Z,72
2017-03-13T14:08:17.668Z,72
2017-03-13T14:09:32.676Z,72
2017-03-13T14:10:46.866Z,72
2017-03-13T14:12:00.298Z,72
2017-03-13T14:13:14.121Z,72
2017-03-13T14:14:27.550Z,72
2017-03-13T14:15:42.310Z,72
2017-03-13T14:16:56.896Z,72
2017-03-13T14:18:10.732Z,72
2017-03-13T14:19:24.737Z,72
2017-03-13T14:20:38.253Z,72
2017-03-13T14:21:52.588Z,72
2017-03-13T14:23:06.672Z,72
2017-03-13T14:24:20.632Z,72
2017-03-13T14:25:35.572Z,72
2017-03-13T14:26:51.518Z,72
2017-03-13T14:28:05.118Z,72
2017-03-13T14:29:19.226Z,72
2017-03-13T14:30:32.837Z,72
2017-03-13T14:31:46.284Z,72
2017-03-13T14:32:59.707Z,72
2017-03-13T14:34:13.947Z,72
2017-03-13T14:35:27.390Z,72
2017-03-13T14:36:40.977Z,72
2017-03-13T14:37:54.463Z,72
2017-03-13T14:39:07.890Z,72
2017-03-13T14:40:23.518Z,72
2017-03-13T14:41:37.241Z,72
2017-03-13T14:42:50.820Z,72
2017-03-13T14:44:04.293Z,72
2017-03-13T14:45:18.087Z,72
2017-03-13T14:46:31.929Z,72
2017-03-13T14:47:46.394Z,72
2017-03-13T14:48:59.858Z,72
2017-03-13T14:50:14.131Z,72
2017-03-13T14:51:27.604Z,72
2017-03-13T14:52:42.453Z,72
2017-03-13T14:53:56.958Z,72
2017-03-13T14:55:10.405Z,72
2017-03-13T14:56:23.843Z,73
2017-03-13T14:57:37.390Z,73
2017-03-13T14:58:56.247Z,73
2017-03-13T15:00:17.103Z,73
2017-03-13T15:01:31.352Z,73
2017-03-13T15:02:45.210Z,73
2017-03-13T15:03:58.724Z,73
2017-03-13T15:05:12.150Z,73
2017-03-13T15:06:25.544Z,73
2017-03-13T15:07:39.817Z,73
2017-03-13T15:08:53.366Z,73
2017-03-13T15:10:07.668Z,73
2017-03-13T15:11:21.209Z,73
2017-03-13T15:12:35.595Z,73
2017-03-13T15:13:49.192Z,73
2017-03-13T15:15:03.422Z,73
2017-03-13T15:16:17.369Z,73
2017-03-13T15:17:31.595Z,73
2017-03-13T15:18:46.494Z,73
2017-03-13T15:20:00.365Z,73
2017-03-13T15:21:13.807Z,73
2017-03-13T15:22:33.759Z,73
2017-03-13T15:23:48.151Z,73
2017-03-13T15:25:14.616Z,73
2017-03-13T15:26:28.530Z,73
2017-03-13T15:27:42.469Z,73
2017-03-13T15:28:56.462Z,73
2017-03-13T15:30:10.853Z,73
2017-03-13T15:31:24.601Z,73
2017-03-13T15:32:38.621Z,73
2017-03-13T15:33:52.634Z,73
2017-03-13T15:35:06.577Z,73
2017-03-13T15:36:20.568Z,73
2017-03-13T15:37:34.317Z,73
2017-03-13T15:38:47.837Z,73
2017-03-13T15:40:01.978Z,73
2017-03-13T15:41:15.790Z,73
2017-03-13T15:42:29.251Z,73
2017-03-13T15:43:42.970Z,73
2017-03-13T15:44:57.097Z,73
2017-03-13T15:46:10.930Z,73
2017-03-13T15:47:24.417Z,73
2017-03-13T15:48:38.285Z,73
2017-03-13T15:49:52.091Z,73
2017-03-13T15:51:05.957Z,73
2017-03-13T15:52:19.810Z,73
2017-03-13T15:53:33.233Z,73
2017-03-13T15:54:46.658Z,73
2017-03-13T15:56:00.898Z,73
2017-03-13T15:57:17.320Z,73
2017-03-13T15:58:31.137Z,73
2017-03-13T15:59:44.565Z,73
2017-03-13T16:00:58.087Z,73
2017-03-13T16:02:11.893Z,73
2017-03-13T16:03:25.336Z,73
2017-03-13T16:04:38.812Z,73
2017-03-13T16:05:52.385Z,73
2017-03-13T16:07:06.139Z,73
2017-03-13T16:08:19.943Z,73
2017-03-13T16:09:33.402Z,73
2017-03-13T16:10:47.483Z,73
2017-03-13T16:12:00.970Z,73
2017-03-13T16:13:15.230Z,73
2017-03-13T16:14:29.025Z,73
2017-03-13T16:15:43.509Z,73
2017-03-13T16:16:57.038Z,73
2017-03-13T16:18:10.953Z,73
2017-03-13T16:19:24.391Z,73
2017-03-13T16:20:38.132Z,73
2017-03-13T16:21:51.699Z,73
2017-03-13T16:23:05.545Z,73
2017-03-13T16:24:19.110Z,73
2017-03-13T16:25:32.540Z,73
2017-03-13T16:26:46.371Z,73
2017-03-13T16:28:00.198Z,73
2017-03-13T16:29:14.063Z,73
2017-03-13T16:30:27.926Z,72
2017-03-13T16:31:41.794Z,72
2017-03-13T16:32:56.047Z,72
2017-03-13T16:34:09.514Z,72
2017-03-13T16:35:23.394Z,72
2017-03-13T16:36:37.258Z,72
2017-03-13T16:37:51.275Z,72
2017-03-13T16:39:05.016Z,72
2017-03-13T16:40:19.419Z,72
2017-03-13T16:41:33.009Z,72
2017-03-13T16:42:46.516Z,72
2017-03-13T16:43:59.998Z,72
2017-03-13T16:45:15.236Z,72
2017-03-13T16:46:29.536Z,72
2017-03-13T16:47:43.379Z,72
2017-03-13T16:48:57.545Z,72
2017-03-13T16:50:11.865Z,72
2017-03-13T16:51:25.578Z,72
2017-03-13T16:52:39.139Z,72
2017-03-13T16:53:52.642Z,72
2017-03-13T16:55:06.042Z,72
2017-03-13T16:56:19.477Z,72
2017-03-13T16:57:33.623Z,72
2017-03-13T16:58:47.130Z,72
2017-03-13T17:00:00.586Z,72
2017-03-13T17:01:13.987Z,72
2017-03-13T17:02:27.440Z,72
2017-03-13T17:03:41.261Z,72
2017-03-13T17:04:55.081Z,72
2017-03-13T17:06:08.910Z,72
2017-03-13T17:07:22.325Z,72
2017-03-13T17:08:36.249Z,71
2017-03-13T17:09:50.161Z,71
2017-03-13T17:11:03.603Z,71
2017-03-13T17:12:17.026Z,71
2017-03-13T17:13:33.101Z,71
2017-03-13T17:14:47.453Z,71
2017-03-13T17:16:01.324Z,71
2017-03-13T17:17:14.745Z,71
2017-03-13T17:18:28.588Z,71
2017-03-13T17:19:42.102Z,71
2017-03-13T17:20:55.647Z,71
2017-03-13T17:22:09.512Z,71
2017-03-13T17:23:22.961Z,71
2017-03-13T17:24:36.377Z,71
2017-03-13T17:25:49.883Z,71
2017-03-13T17:27:03.300Z,71
2017-03-13T17:28:17.461Z,71
2017-03-13T17:29:31.309Z,71
2017-03-13T17:30:44.793Z,71
2017-03-13T17:31:58.213Z,71
2017-03-13T17:33:11.658Z,70
2017-03-13T17:34:25.379Z,70
2017-03-13T17:35:38.874Z,70
2017-03-13T17:36:52.299Z,70
2017-03-13T17:38:06.145Z,70
2017-03-13T17:39:19.667Z,70
2017-03-13T17:40:33.480Z,70
2017-03-13T17:41:46.963Z,70
2017-03-13T17:43:00.381Z,70
2017-03-13T17:44:13.863Z,70
2017-03-13T17:45:27.258Z,70
2017-03-13T17:46:41.034Z,70
2017-03-13T17:47:54.842Z,70
2017-03-13T17:49:09.194Z,70
2017-03-13T17:50:23.044Z,70
2017-03-13T17:51:37.066Z,70
2017-03-13T17:52:51.268Z,70
2017-03-13T17:54:04.862Z,70
2017-03-13T17:55:18.704Z,70
2017-03-13T17:58:47.850Z,69
2017-03-13T18:00:01.613Z,69
2017-03-13T18:01:15.241Z,69
2017-03-13T18:02:29.778Z,69